METAR AND TAF INFORMATION
METAR FOR HEGN
ADDS - METARS form results

(2315 UTC 08 August 2020)
Data provider http://aviationweather.gov/metar/data/
 
METAR text: HEGN 082300Z 29011KT CAVOK 33/13 Q1004 NOSIG
Conditions at: HEGN (HURGUADA , EG) observed 2300 UTC 08 August 2020
Temperature: 33.0°C (91°F)
Dewpoint: 13.0°C (55°F) [RH = 30%]
Pressure (altimeter): 29.65 inches Hg (1004.0 mb)
Winds: from the WNW (290 degrees) at 13 MPH (11 knots; 5.7 m/s)
Visibility: 6 or more miles (10+ km)
Ceiling: ceiling and visibility are OK
Clouds: unknown
Weather: no significant weather observed at this time

Forecast for: HEGN (HURGUADA , EG)
Text: TAF HEGN 082300Z 0900/1006 29012KT CAVOK
Forecast period: 0000 UTC 09 August 2020 to 0600 UTC 10 August 2020
Forecast type: FROM: standard forecast or significant change
Winds: from the WNW (290 degrees) at 14 MPH (12 knots; 6.2 m/s)
Visibility: 6 or more miles (10+ km)
Ceiling: unknown
Clouds: missing
Weather: NSW  (no significant weather)

 AIRPORT MAP

 RUNWAY INFORMATION

 AIRPORT FREQUENCIES
Type APP Name RADAR Frequency 123.4 MHZ
Type GND Name GND Frequency 121.9 MHZ
Type RDO Name RDO Frequency 585.9 MHZ
Type TWR Name TWR Frequency 119.6 MHZ

 AIRPORT NEAR NAVIGATION AIDS
Type VOR-DME Name Hurghada Frequency 116500 KHZ



2018 Air Astana Virtual Airline